sensor_id;sensor_type;location;lat;lon;timestamp;temperature;humidity
51500;DHT22;39101;53.478;6.158;2023-04-24T00:00:40;10.20;99.90
51500;DHT22;39101;53.478;6.158;2023-04-24T00:03:06;10.20;99.90
51500;DHT22;39101;53.478;6.158;2023-04-24T00:05:33;10.00;99.90
51500;DHT22;39101;53.478;6.158;2023-04-24T00:07:59;10.10;99.90
51500;DHT22;39101;53.478;6.158;2023-04-24T00:10:25;10.30;99.90
51500;DHT22;39101;53.478;6.158;2023-04-24T00:12:51;10.00;99.90
51500;DHT22;39101;53.478;6.158;2023-04-24T00:15:16;10.10;99.90
51500;DHT22;39101;53.478;6.158;2023-04-24T00:17:42;10.30;99.90
51500;DHT22;39101;53.478;6.158;2023-04-24T00:20:08;10.20;99.90
51500;DHT22;39101;53.478;6.158;2023-04-24T00:22:35;10.30;99.90
51500;DHT22;39101;53.478;6.158;2023-04-24T00:25:01;10.10;99.90
51500;DHT22;39101;53.478;6.158;2023-04-24T00:27:26;10.30;99.90
51500;DHT22;39101;53.478;6.158;2023-04-24T00:29:52;10.40;99.90
51500;DHT22;39101;53.478;6.158;2023-04-24T00:32:18;10.50;99.90
51500;DHT22;39101;53.478;6.158;2023-04-24T00:34:44;10.40;99.90
51500;DHT22;39101;53.478;6.158;2023-04-24T00:37:09;10.50;99.90
51500;DHT22;39101;53.478;6.158;2023-04-24T00:39:37;10.30;99.90
51500;DHT22;39101;53.478;6.158;2023-04-24T00:42:02;10.30;99.90
51500;DHT22;39101;53.478;6.158;2023-04-24T00:44:28;10.40;99.90
51500;DHT22;39101;53.478;6.158;2023-04-24T00:46:54;10.30;99.90
51500;DHT22;39101;53.478;6.158;2023-04-24T00:49:21;10.50;99.90
51500;DHT22;39101;53.478;6.158;2023-04-24T00:51:47;10.40;99.90
51500;DHT22;39101;53.478;6.158;2023-04-24T00:54:15;10.50;99.90
51500;DHT22;39101;53.478;6.158;2023-04-24T00:56:41;10.30;99.90
51500;DHT22;39101;53.478;6.158;2023-04-24T00:59:08;10.30;99.90
51500;DHT22;39101;53.478;6.158;2023-04-24T01:01:35;10.30;99.90
51500;DHT22;39101;53.478;6.158;2023-04-24T01:04:01;10.30;99.90
51500;DHT22;39101;53.478;6.158;2023-04-24T01:06:29;10.40;99.90
51500;DHT22;39101;53.478;6.158;2023-04-24T01:08:57;10.40;99.90
51500;DHT22;39101;53.478;6.158;2023-04-24T01:11:24;10.40;99.90
51500;DHT22;39101;53.478;6.158;2023-04-24T01:13:50;10.50;99.90
51500;DHT22;39101;53.478;6.158;2023-04-24T01:16:16;10.40;99.90
51500;DHT22;39101;53.478;6.158;2023-04-24T01:18:43;10.40;99.90
51500;DHT22;39101;53.478;6.158;2023-04-24T01:21:13;10.20;99.90
51500;DHT22;39101;53.478;6.158;2023-04-24T01:23:40;10.50;99.90
51500;DHT22;39101;53.478;6.158;2023-04-24T01:26:06;10.40;99.90
51500;DHT22;39101;53.478;6.158;2023-04-24T01:28:31;10.30;99.90
51500;DHT22;39101;53.478;6.158;2023-04-24T01:30:57;10.50;99.90
51500;DHT22;39101;53.478;6.158;2023-04-24T01:33:23;10.40;99.90
51500;DHT22;39101;53.478;6.158;2023-04-24T01:35:49;10.40;99.90
51500;DHT22;39101;53.478;6.158;2023-04-24T01:38:15;10.40;99.90
51500;DHT22;39101;53.478;6.158;2023-04-24T01:40:41;10.20;99.90
51500;DHT22;39101;53.478;6.158;2023-04-24T01:43:07;10.50;99.90
51500;DHT22;39101;53.478;6.158;2023-04-24T01:45:33;10.40;99.90
51500;DHT22;39101;53.478;6.158;2023-04-24T01:47:59;10.40;99.90
51500;DHT22;39101;53.478;6.158;2023-04-24T01:50:25;10.40;99.90
51500;DHT22;39101;53.478;6.158;2023-04-24T01:52:51;10.30;99.90
51500;DHT22;39101;53.478;6.158;2023-04-24T01:55:17;10.40;99.90
51500;DHT22;39101;53.478;6.158;2023-04-24T01:57:42;10.30;99.90
51500;DHT22;39101;53.478;6.158;2023-04-24T02:00:08;10.40;99.90
51500;DHT22;39101;53.478;6.158;2023-04-24T02:02:36;10.30;99.90
51500;DHT22;39101;53.478;6.158;2023-04-24T02:05:02;10.60;99.90
51500;DHT22;39101;53.478;6.158;2023-04-24T02:07:28;10.30;99.90
51500;DHT22;39101;53.478;6.158;2023-04-24T02:09:54;10.50;99.90
51500;DHT22;39101;53.478;6.158;2023-04-24T02:12:20;10.40;99.90
51500;DHT22;39101;53.478;6.158;2023-04-24T02:14:46;10.40;99.90
51500;DHT22;39101;53.478;6.158;2023-04-24T02:17:12;10.40;99.90
51500;DHT22;39101;53.478;6.158;2023-04-24T02:19:38;10.40;99.90
51500;DHT22;39101;53.478;6.158;2023-04-24T02:22:04;10.50;99.90
51500;DHT22;39101;53.478;6.158;2023-04-24T02:24:30;10.50;99.90
51500;DHT22;39101;53.478;6.158;2023-04-24T02:26:56;10.50;99.90
51500;DHT22;39101;53.478;6.158;2023-04-24T02:29:21;10.40;99.90
51500;DHT22;39101;53.478;6.158;2023-04-24T02:31:48;10.60;99.90
51500;DHT22;39101;53.478;6.158;2023-04-24T02:34:13;10.30;99.90
51500;DHT22;39101;53.478;6.158;2023-04-24T02:36:39;10.30;99.90
51500;DHT22;39101;53.478;6.158;2023-04-24T02:39:05;10.60;99.90
51500;DHT22;39101;53.478;6.158;2023-04-24T02:41:30;10.30;99.90
51500;DHT22;39101;53.478;6.158;2023-04-24T02:43:58;10.30;99.90
51500;DHT22;39101;53.478;6.158;2023-04-24T02:46:24;10.30;99.90
51500;DHT22;39101;53.478;6.158;2023-04-24T02:48:50;10.30;99.90
51500;DHT22;39101;53.478;6.158;2023-04-24T02:51:16;10.40;99.90
51500;DHT22;39101;53.478;6.158;2023-04-24T02:53:41;10.30;99.90
51500;DHT22;39101;53.478;6.158;2023-04-24T02:56:07;10.30;99.90
51500;DHT22;39101;53.478;6.158;2023-04-24T02:58:32;10.50;99.90
51500;DHT22;39101;53.478;6.158;2023-04-24T03:00:58;10.50;99.90
51500;DHT22;39101;53.478;6.158;2023-04-24T03:03:24;10.30;99.90
51500;DHT22;39101;53.478;6.158;2023-04-24T03:05:50;10.40;99.90
51500;DHT22;39101;53.478;6.158;2023-04-24T03:08:16;10.30;99.90
51500;DHT22;39101;53.478;6.158;2023-04-24T03:10:41;10.60;99.90
51500;DHT22;39101;53.478;6.158;2023-04-24T03:13:07;10.40;99.90
51500;DHT22;39101;53.478;6.158;2023-04-24T03:15:33;10.50;99.90
51500;DHT22;39101;53.478;6.158;2023-04-24T03:17:58;10.40;99.90
51500;DHT22;39101;53.478;6.158;2023-04-24T03:20:26;10.30;99.90
51500;DHT22;39101;53.478;6.158;2023-04-24T03:22:51;10.10;99.90
51500;DHT22;39101;53.478;6.158;2023-04-24T03:25:17;9.90;99.90
51500;DHT22;39101;53.478;6.158;2023-04-24T03:27:43;10.00;99.90
51500;DHT22;39101;53.478;6.158;2023-04-24T03:30:09;9.80;99.90
51500;DHT22;39101;53.478;6.158;2023-04-24T03:32:35;9.70;99.90
51500;DHT22;39101;53.478;6.158;2023-04-24T03:35:00;9.90;99.90
51500;DHT22;39101;53.478;6.158;2023-04-24T03:37:26;9.80;99.90
51500;DHT22;39101;53.478;6.158;2023-04-24T03:39:52;9.70;99.90
51500;DHT22;39101;53.478;6.158;2023-04-24T03:42:18;9.70;99.90
51500;DHT22;39101;53.478;6.158;2023-04-24T03:44:43;9.80;99.90
51500;DHT22;39101;53.478;6.158;2023-04-24T03:47:09;9.80;99.90
51500;DHT22;39101;53.478;6.158;2023-04-24T03:49:35;9.70;99.90
51500;DHT22;39101;53.478;6.158;2023-04-24T03:52:01;9.70;99.90
51500;DHT22;39101;53.478;6.158;2023-04-24T03:54:26;9.70;99.90
51500;DHT22;39101;53.478;6.158;2023-04-24T03:56:52;9.80;99.90
51500;DHT22;39101;53.478;6.158;2023-04-24T03:59:18;9.70;99.90
51500;DHT22;39101;53.478;6.158;2023-04-24T04:01:44;9.60;99.90
51500;DHT22;39101;53.478;6.158;2023-04-24T04:04:10;9.50;99.90
51500;DHT22;39101;53.478;6.158;2023-04-24T04:06:36;9.70;99.90
51500;DHT22;39101;53.478;6.158;2023-04-24T04:09:02;9.60;99.90
51500;DHT22;39101;53.478;6.158;2023-04-24T04:11:29;9.50;99.90
51500;DHT22;39101;53.478;6.158;2023-04-24T04:13:55;9.60;99.90
51500;DHT22;39101;53.478;6.158;2023-04-24T04:16:20;9.90;99.90
51500;DHT22;39101;53.478;6.158;2023-04-24T04:18:46;9.70;99.90
51500;DHT22;39101;53.478;6.158;2023-04-24T04:21:12;9.80;99.90
51500;DHT22;39101;53.478;6.158;2023-04-24T04:23:37;9.70;99.90
51500;DHT22;39101;53.478;6.158;2023-04-24T04:26:03;9.70;99.90
51500;DHT22;39101;53.478;6.158;2023-04-24T04:28:30;9.80;99.90
51500;DHT22;39101;53.478;6.158;2023-04-24T04:30:58;9.50;99.90
51500;DHT22;39101;53.478;6.158;2023-04-24T04:33:24;9.60;99.90
51500;DHT22;39101;53.478;6.158;2023-04-24T04:35:50;9.80;99.90
51500;DHT22;39101;53.478;6.158;2023-04-24T04:38:22;9.60;99.90
51500;DHT22;39101;53.478;6.158;2023-04-24T04:40:48;9.50;99.90
51500;DHT22;39101;53.478;6.158;2023-04-24T04:43:14;9.50;99.90
51500;DHT22;39101;53.478;6.158;2023-04-24T04:45:42;9.50;99.90
51500;DHT22;39101;53.478;6.158;2023-04-24T04:48:09;9.50;99.90
51500;DHT22;39101;53.478;6.158;2023-04-24T04:50:37;9.80;99.90
51500;DHT22;39101;53.478;6.158;2023-04-24T04:53:03;9.60;99.90
51500;DHT22;39101;53.478;6.158;2023-04-24T04:55:29;9.50;99.90
51500;DHT22;39101;53.478;6.158;2023-04-24T04:57:55;9.60;99.90
51500;DHT22;39101;53.478;6.158;2023-04-24T05:00:22;9.40;99.90
51500;DHT22;39101;53.478;6.158;2023-04-24T05:02:50;9.40;99.90
51500;DHT22;39101;53.478;6.158;2023-04-24T05:05:17;9.60;99.90
51500;DHT22;39101;53.478;6.158;2023-04-24T05:07:43;9.40;99.90
51500;DHT22;39101;53.478;6.158;2023-04-24T05:10:09;9.50;99.90
51500;DHT22;39101;53.478;6.158;2023-04-24T05:12:35;9.50;99.90
51500;DHT22;39101;53.478;6.158;2023-04-24T05:15:01;9.50;99.90
51500;DHT22;39101;53.478;6.158;2023-04-24T05:17:27;9.70;99.90
51500;DHT22;39101;53.478;6.158;2023-04-24T05:19:53;9.70;99.90
51500;DHT22;39101;53.478;6.158;2023-04-24T05:22:18;9.40;99.90
51500;DHT22;39101;53.478;6.158;2023-04-24T05:24:46;9.60;99.90
51500;DHT22;39101;53.478;6.158;2023-04-24T05:27:12;9.70;99.90
51500;DHT22;39101;53.478;6.158;2023-04-24T05:29:38;9.50;99.90
51500;DHT22;39101;53.478;6.158;2023-04-24T05:32:04;9.40;99.90
51500;DHT22;39101;53.478;6.158;2023-04-24T05:34:29;9.60;99.90
51500;DHT22;39101;53.478;6.158;2023-04-24T05:36:55;9.60;99.90
51500;DHT22;39101;53.478;6.158;2023-04-24T05:39:21;9.50;99.90
51500;DHT22;39101;53.478;6.158;2023-04-24T05:41:46;9.40;99.90
51500;DHT22;39101;53.478;6.158;2023-04-24T05:44:13;9.30;99.90
51500;DHT22;39101;53.478;6.158;2023-04-24T05:46:38;9.40;99.90
51500;DHT22;39101;53.478;6.158;2023-04-24T05:49:04;9.40;99.90
51500;DHT22;39101;53.478;6.158;2023-04-24T05:51:29;9.50;99.90
51500;DHT22;39101;53.478;6.158;2023-04-24T05:53:57;9.40;99.90
51500;DHT22;39101;53.478;6.158;2023-04-24T05:56:23;9.40;99.90
51500;DHT22;39101;53.478;6.158;2023-04-24T05:58:48;9.40;99.90
51500;DHT22;39101;53.478;6.158;2023-04-24T06:01:14;9.30;99.90
51500;DHT22;39101;53.478;6.158;2023-04-24T06:03:41;9.50;99.90
51500;DHT22;39101;53.478;6.158;2023-04-24T06:06:07;9.60;99.90
51500;DHT22;39101;53.478;6.158;2023-04-24T06:08:33;9.60;99.90
51500;DHT22;39101;53.478;6.158;2023-04-24T06:10:59;9.60;99.90
51500;DHT22;39101;53.478;6.158;2023-04-24T06:13:24;9.50;99.90
51500;DHT22;39101;53.478;6.158;2023-04-24T06:15:50;9.40;99.90
51500;DHT22;39101;53.478;6.158;2023-04-24T06:18:16;9.60;99.90
51500;DHT22;39101;53.478;6.158;2023-04-24T06:20:42;9.50;99.90
51500;DHT22;39101;53.478;6.158;2023-04-24T06:23:08;9.50;99.90
51500;DHT22;39101;53.478;6.158;2023-04-24T06:25:33;9.40;99.90
51500;DHT22;39101;53.478;6.158;2023-04-24T06:27:59;9.40;99.90
51500;DHT22;39101;53.478;6.158;2023-04-24T06:30:25;9.60;99.90
51500;DHT22;39101;53.478;6.158;2023-04-24T06:32:51;9.60;99.90
51500;DHT22;39101;53.478;6.158;2023-04-24T06:35:16;9.50;99.90
51500;DHT22;39101;53.478;6.158;2023-04-24T06:37:42;9.30;99.90
51500;DHT22;39101;53.478;6.158;2023-04-24T06:40:09;9.30;99.90
51500;DHT22;39101;53.478;6.158;2023-04-24T06:42:35;9.40;99.90
51500;DHT22;39101;53.478;6.158;2023-04-24T06:45:01;9.40;99.90
51500;DHT22;39101;53.478;6.158;2023-04-24T06:47:27;9.30;99.90
51500;DHT22;39101;53.478;6.158;2023-04-24T06:49:53;9.20;99.90
51500;DHT22;39101;53.478;6.158;2023-04-24T06:52:19;9.40;99.90
51500;DHT22;39101;53.478;6.158;2023-04-24T06:54:45;9.10;99.90
51500;DHT22;39101;53.478;6.158;2023-04-24T06:57:11;9.20;99.90
51500;DHT22;39101;53.478;6.158;2023-04-24T06:59:37;9.20;99.90
51500;DHT22;39101;53.478;6.158;2023-04-24T07:02:03;9.20;99.90
51500;DHT22;39101;53.478;6.158;2023-04-24T07:04:29;9.10;99.90
51500;DHT22;39101;53.478;6.158;2023-04-24T07:06:56;9.10;99.90
51500;DHT22;39101;53.478;6.158;2023-04-24T07:09:24;9.20;99.90
51500;DHT22;39101;53.478;6.158;2023-04-24T07:11:51;9.20;99.90
51500;DHT22;39101;53.478;6.158;2023-04-24T07:14:17;9.30;99.90
51500;DHT22;39101;53.478;6.158;2023-04-24T07:16:43;9.20;99.90
51500;DHT22;39101;53.478;6.158;2023-04-24T07:19:09;9.00;99.90
51500;DHT22;39101;53.478;6.158;2023-04-24T07:21:35;9.20;99.90
51500;DHT22;39101;53.478;6.158;2023-04-24T07:24:00;9.10;99.90
51500;DHT22;39101;53.478;6.158;2023-04-24T07:26:27;9.30;99.90
51500;DHT22;39101;53.478;6.158;2023-04-24T07:28:53;9.30;99.90
51500;DHT22;39101;53.478;6.158;2023-04-24T07:31:19;9.10;99.90
51500;DHT22;39101;53.478;6.158;2023-04-24T07:33:44;9.00;99.90
51500;DHT22;39101;53.478;6.158;2023-04-24T07:36:11;9.00;99.90
51500;DHT22;39101;53.478;6.158;2023-04-24T07:38:42;9.10;99.90
51500;DHT22;39101;53.478;6.158;2023-04-24T07:41:07;9.20;99.90
51500;DHT22;39101;53.478;6.158;2023-04-24T07:43:33;9.00;99.90
51500;DHT22;39101;53.478;6.158;2023-04-24T07:45:59;9.10;99.90
51500;DHT22;39101;53.478;6.158;2023-04-24T07:48:25;9.10;99.90
51500;DHT22;39101;53.478;6.158;2023-04-24T07:50:52;8.90;99.90
51500;DHT22;39101;53.478;6.158;2023-04-24T07:53:17;9.00;99.90
51500;DHT22;39101;53.478;6.158;2023-04-24T07:55:43;9.00;99.90
51500;DHT22;39101;53.478;6.158;2023-04-24T07:58:09;8.80;99.90
51500;DHT22;39101;53.478;6.158;2023-04-24T08:00:35;8.90;99.90
51500;DHT22;39101;53.478;6.158;2023-04-24T08:03:01;8.90;99.90
51500;DHT22;39101;53.478;6.158;2023-04-24T08:05:26;8.90;99.90
51500;DHT22;39101;53.478;6.158;2023-04-24T08:07:54;8.90;99.90
51500;DHT22;39101;53.478;6.158;2023-04-24T08:10:24;9.10;99.90
51500;DHT22;39101;53.478;6.158;2023-04-24T08:12:49;8.80;99.90
51500;DHT22;39101;53.478;6.158;2023-04-24T08:15:15;9.00;99.90
51500;DHT22;39101;53.478;6.158;2023-04-24T08:17:41;9.00;99.90
51500;DHT22;39101;53.478;6.158;2023-04-24T08:20:07;8.80;99.90
51500;DHT22;39101;53.478;6.158;2023-04-24T08:22:41;8.80;99.90
51500;DHT22;39101;53.478;6.158;2023-04-24T08:25:08;8.90;99.90
51500;DHT22;39101;53.478;6.158;2023-04-24T08:27:34;8.80;99.90
51500;DHT22;39101;53.478;6.158;2023-04-24T08:30:00;8.90;99.90
51500;DHT22;39101;53.478;6.158;2023-04-24T08:32:26;8.80;99.90
51500;DHT22;39101;53.478;6.158;2023-04-24T08:34:58;8.90;99.90
51500;DHT22;39101;53.478;6.158;2023-04-24T08:37:25;9.10;99.90
51500;DHT22;39101;53.478;6.158;2023-04-24T08:39:51;9.10;99.90
51500;DHT22;39101;53.478;6.158;2023-04-24T08:42:17;9.00;99.90
51500;DHT22;39101;53.478;6.158;2023-04-24T08:44:43;9.00;99.90
51500;DHT22;39101;53.478;6.158;2023-04-24T08:47:11;9.20;99.90
51500;DHT22;39101;53.478;6.158;2023-04-24T08:49:37;9.30;99.90
51500;DHT22;39101;53.478;6.158;2023-04-24T08:52:04;9.20;99.90
51500;DHT22;39101;53.478;6.158;2023-04-24T08:54:31;9.40;99.90
51500;DHT22;39101;53.478;6.158;2023-04-24T08:56:59;9.50;99.90
51500;DHT22;39101;53.478;6.158;2023-04-24T08:59:29;9.40;99.90
51500;DHT22;39101;53.478;6.158;2023-04-24T09:01:56;9.40;99.90
51500;DHT22;39101;53.478;6.158;2023-04-24T09:04:23;9.30;99.90
51500;DHT22;39101;53.478;6.158;2023-04-24T09:06:57;9.30;99.90
51500;DHT22;39101;53.478;6.158;2023-04-24T09:09:24;9.30;99.90
51500;DHT22;39101;53.478;6.158;2023-04-24T09:11:50;9.20;99.90
51500;DHT22;39101;53.478;6.158;2023-04-24T09:14:17;9.40;99.90
51500;DHT22;39101;53.478;6.158;2023-04-24T09:16:43;9.30;99.90
51500;DHT22;39101;53.478;6.158;2023-04-24T09:19:09;9.30;99.90
51500;DHT22;39101;53.478;6.158;2023-04-24T09:21:35;9.50;99.90
51500;DHT22;39101;53.478;6.158;2023-04-24T09:24:03;9.50;99.90
51500;DHT22;39101;53.478;6.158;2023-04-24T09:26:35;9.40;99.90
51500;DHT22;39101;53.478;6.158;2023-04-24T09:29:02;9.50;99.90
51500;DHT22;39101;53.478;6.158;2023-04-24T09:31:28;9.60;99.90
51500;DHT22;39101;53.478;6.158;2023-04-24T09:34:03;9.50;99.90
51500;DHT22;39101;53.478;6.158;2023-04-24T09:39:04;9.80;99.90
51500;DHT22;39101;53.478;6.158;2023-04-24T09:41:32;9.90;99.90
51500;DHT22;39101;53.478;6.158;2023-04-24T09:44:14;10.00;99.90
51500;DHT22;39101;53.478;6.158;2023-04-24T09:46:46;10.20;99.90
51500;DHT22;39101;53.478;6.158;2023-04-24T09:49:15;10.30;99.90
51500;DHT22;39101;53.478;6.158;2023-04-24T09:51:42;10.20;99.90
51500;DHT22;39101;53.478;6.158;2023-04-24T09:54:18;10.20;99.90
51500;DHT22;39101;53.478;6.158;2023-04-24T09:56:47;10.40;99.90
51500;DHT22;39101;53.478;6.158;2023-04-24T09:59:17;10.50;99.90
51500;DHT22;39101;53.478;6.158;2023-04-24T10:01:43;10.40;99.90
51500;DHT22;39101;53.478;6.158;2023-04-24T10:04:16;10.50;99.90
51500;DHT22;39101;53.478;6.158;2023-04-24T10:06:44;10.60;99.90
51500;DHT22;39101;53.478;6.158;2023-04-24T10:09:10;10.60;99.90
51500;DHT22;39101;53.478;6.158;2023-04-24T10:11:37;10.70;99.90
51500;DHT22;39101;53.478;6.158;2023-04-24T10:14:06;10.80;99.90
51500;DHT22;39101;53.478;6.158;2023-04-24T10:16:32;10.60;99.90
51500;DHT22;39101;53.478;6.158;2023-04-24T10:18:59;10.60;99.90
51500;DHT22;39101;53.478;6.158;2023-04-24T10:21:26;10.60;99.90
51500;DHT22;39101;53.478;6.158;2023-04-24T10:23:53;10.70;99.90
51500;DHT22;39101;53.478;6.158;2023-04-24T10:26:20;10.80;99.90
51500;DHT22;39101;53.478;6.158;2023-04-24T10:28:47;10.60;99.90
51500;DHT22;39101;53.478;6.158;2023-04-24T10:31:14;10.60;99.90
51500;DHT22;39101;53.478;6.158;2023-04-24T10:33:41;10.60;99.90
51500;DHT22;39101;53.478;6.158;2023-04-24T10:36:09;10.60;99.90
51500;DHT22;39101;53.478;6.158;2023-04-24T10:38:37;10.50;99.90
51500;DHT22;39101;53.478;6.158;2023-04-24T10:41:11;10.30;99.90
51500;DHT22;39101;53.478;6.158;2023-04-24T10:43:45;10.40;99.90
51500;DHT22;39101;53.478;6.158;2023-04-24T10:46:10;10.40;99.90
51500;DHT22;39101;53.478;6.158;2023-04-24T10:48:42;10.50;99.90
51500;DHT22;39101;53.478;6.158;2023-04-24T10:51:14;10.40;99.90
51500;DHT22;39101;53.478;6.158;2023-04-24T10:53:40;10.40;99.90
51500;DHT22;39101;53.478;6.158;2023-04-24T10:56:08;10.40;99.90
51500;DHT22;39101;53.478;6.158;2023-04-24T10:58:40;10.30;99.90
51500;DHT22;39101;53.478;6.158;2023-04-24T11:01:08;10.50;99.90
51500;DHT22;39101;53.478;6.158;2023-04-24T11:03:35;10.40;99.90
51500;DHT22;39101;53.478;6.158;2023-04-24T11:06:06;10.50;99.90
51500;DHT22;39101;53.478;6.158;2023-04-24T11:08:57;10.40;99.90
51500;DHT22;39101;53.478;6.158;2023-04-24T11:11:18;10.30;99.90
51500;DHT22;39101;53.478;6.158;2023-04-24T11:29:22;10.30;99.90
51500;DHT22;39101;53.478;6.158;2023-04-24T11:31:48;10.10;99.90
51500;DHT22;39101;53.478;6.158;2023-04-24T11:34:16;10.10;99.90
51500;DHT22;39101;53.478;6.158;2023-04-24T11:36:48;10.20;99.90
51500;DHT22;39101;53.478;6.158;2023-04-24T11:39:14;10.10;99.90
51500;DHT22;39101;53.478;6.158;2023-04-24T11:41:40;10.10;99.90
51500;DHT22;39101;53.478;6.158;2023-04-24T11:44:08;9.90;99.90
51500;DHT22;39101;53.478;6.158;2023-04-24T11:46:34;9.80;99.90
51500;DHT22;39101;53.478;6.158;2023-04-24T11:48:59;9.70;99.90
51500;DHT22;39101;53.478;6.158;2023-04-24T11:51:26;9.80;99.90
51500;DHT22;39101;53.478;6.158;2023-04-24T11:53:56;9.60;99.90
51500;DHT22;39101;53.478;6.158;2023-04-24T11:56:22;9.90;99.90
51500;DHT22;39101;53.478;6.158;2023-04-24T11:58:48;9.80;99.90
51500;DHT22;39101;53.478;6.158;2023-04-24T12:01:17;9.90;99.90
51500;DHT22;39101;53.478;6.158;2023-04-24T12:03:48;9.80;99.90
51500;DHT22;39101;53.478;6.158;2023-04-24T12:06:13;9.80;99.90
51500;DHT22;39101;53.478;6.158;2023-04-24T12:08:39;9.70;99.90
51500;DHT22;39101;53.478;6.158;2023-04-24T12:11:06;9.90;99.90
51500;DHT22;39101;53.478;6.158;2023-04-24T12:13:33;9.80;99.90
51500;DHT22;39101;53.478;6.158;2023-04-24T12:16:01;9.90;99.90
51500;DHT22;39101;53.478;6.158;2023-04-24T12:18:27;9.80;99.90
51500;DHT22;39101;53.478;6.158;2023-04-24T12:21:18;9.80;99.90
51500;DHT22;39101;53.478;6.158;2023-04-24T12:23:44;9.70;99.90
51500;DHT22;39101;53.478;6.158;2023-04-24T12:26:20;9.80;99.90
51500;DHT22;39101;53.478;6.158;2023-04-24T12:28:48;9.70;99.90
51500;DHT22;39101;53.478;6.158;2023-04-24T12:31:17;9.70;99.90
51500;DHT22;39101;53.478;6.158;2023-04-24T12:33:43;9.50;99.90
51500;DHT22;39101;53.478;6.158;2023-04-24T12:36:12;9.50;99.90
51500;DHT22;39101;53.478;6.158;2023-04-24T12:38:43;9.40;99.90
51500;DHT22;39101;53.478;6.158;2023-04-24T12:41:12;9.30;99.90
51500;DHT22;39101;53.478;6.158;2023-04-24T12:43:38;9.30;99.90
51500;DHT22;39101;53.478;6.158;2023-04-24T12:46:04;9.40;99.90
51500;DHT22;39101;53.478;6.158;2023-04-24T12:48:30;9.50;99.90
51500;DHT22;39101;53.478;6.158;2023-04-24T12:50:59;9.70;99.90
51500;DHT22;39101;53.478;6.158;2023-04-24T12:53:28;9.60;99.90
51500;DHT22;39101;53.478;6.158;2023-04-24T12:55:57;9.70;99.90
51500;DHT22;39101;53.478;6.158;2023-04-24T12:58:22;9.70;99.90
51500;DHT22;39101;53.478;6.158;2023-04-24T13:00:48;9.70;99.90
51500;DHT22;39101;53.478;6.158;2023-04-24T13:03:14;9.80;99.90
51500;DHT22;39101;53.478;6.158;2023-04-24T13:05:41;9.80;99.90
51500;DHT22;39101;53.478;6.158;2023-04-24T13:08:07;9.80;99.90
51500;DHT22;39101;53.478;6.158;2023-04-24T13:10:33;9.80;99.90
51500;DHT22;39101;53.478;6.158;2023-04-24T13:12:59;9.90;99.90
51500;DHT22;39101;53.478;6.158;2023-04-24T13:15:25;10.00;99.90
51500;DHT22;39101;53.478;6.158;2023-04-24T13:17:51;10.10;99.90
51500;DHT22;39101;53.478;6.158;2023-04-24T13:20:16;10.20;99.90
51500;DHT22;39101;53.478;6.158;2023-04-24T13:22:42;10.00;99.90
51500;DHT22;39101;53.478;6.158;2023-04-24T13:25:08;9.80;99.90
51500;DHT22;39101;53.478;6.158;2023-04-24T13:27:34;9.80;99.90
51500;DHT22;39101;53.478;6.158;2023-04-24T13:30:00;9.90;99.90
51500;DHT22;39101;53.478;6.158;2023-04-24T13:32:26;9.80;99.90
51500;DHT22;39101;53.478;6.158;2023-04-24T13:34:53;9.60;99.90
51500;DHT22;39101;53.478;6.158;2023-04-24T13:37:18;9.60;99.90
51500;DHT22;39101;53.478;6.158;2023-04-24T13:39:44;9.50;99.90
51500;DHT22;39101;53.478;6.158;2023-04-24T13:42:10;9.40;99.90
51500;DHT22;39101;53.478;6.158;2023-04-24T13:44:36;9.40;99.90
51500;DHT22;39101;53.478;6.158;2023-04-24T13:47:01;9.30;99.90
51500;DHT22;39101;53.478;6.158;2023-04-24T13:49:28;9.30;99.90
51500;DHT22;39101;53.478;6.158;2023-04-24T13:51:55;9.10;99.90
51500;DHT22;39101;53.478;6.158;2023-04-24T13:54:21;9.40;99.90
51500;DHT22;39101;53.478;6.158;2023-04-24T13:56:48;9.10;99.90
51500;DHT22;39101;53.478;6.158;2023-04-24T13:59:14;8.90;99.90
51500;DHT22;39101;53.478;6.158;2023-04-24T14:01:40;8.70;99.90
51500;DHT22;39101;53.478;6.158;2023-04-24T14:04:05;8.50;99.90
51500;DHT22;39101;53.478;6.158;2023-04-24T14:06:31;8.60;99.90
51500;DHT22;39101;53.478;6.158;2023-04-24T14:08:57;8.60;99.90
51500;DHT22;39101;53.478;6.158;2023-04-24T14:11:23;8.80;99.90
51500;DHT22;39101;53.478;6.158;2023-04-24T14:13:48;8.80;99.90
51500;DHT22;39101;53.478;6.158;2023-04-24T14:16:14;8.90;99.90
51500;DHT22;39101;53.478;6.158;2023-04-24T14:18:40;8.70;99.90
51500;DHT22;39101;53.478;6.158;2023-04-24T14:21:06;8.80;99.90
51500;DHT22;39101;53.478;6.158;2023-04-24T14:23:32;8.90;99.90
51500;DHT22;39101;53.478;6.158;2023-04-24T14:25:58;8.80;99.90
51500;DHT22;39101;53.478;6.158;2023-04-24T14:28:24;8.90;99.90
51500;DHT22;39101;53.478;6.158;2023-04-24T14:30:51;8.90;99.90
51500;DHT22;39101;53.478;6.158;2023-04-24T14:33:17;8.90;99.90
51500;DHT22;39101;53.478;6.158;2023-04-24T14:35:43;9.10;99.90
51500;DHT22;39101;53.478;6.158;2023-04-24T14:38:09;9.00;99.90
51500;DHT22;39101;53.478;6.158;2023-04-24T14:40:36;8.90;99.90
51500;DHT22;39101;53.478;6.158;2023-04-24T14:43:02;8.80;99.90
51500;DHT22;39101;53.478;6.158;2023-04-24T14:45:27;8.70;99.90
51500;DHT22;39101;53.478;6.158;2023-04-24T14:47:53;8.60;99.90
51500;DHT22;39101;53.478;6.158;2023-04-24T14:50:19;8.50;99.90
51500;DHT22;39101;53.478;6.158;2023-04-24T14:52:45;8.60;99.90
51500;DHT22;39101;53.478;6.158;2023-04-24T14:55:12;8.70;99.90
51500;DHT22;39101;53.478;6.158;2023-04-24T14:57:38;8.70;99.90
51500;DHT22;39101;53.478;6.158;2023-04-24T15:00:05;8.80;99.90
51500;DHT22;39101;53.478;6.158;2023-04-24T15:02:33;8.70;99.90
51500;DHT22;39101;53.478;6.158;2023-04-24T15:04:58;8.90;99.90
51500;DHT22;39101;53.478;6.158;2023-04-24T15:07:24;8.70;99.90
51500;DHT22;39101;53.478;6.158;2023-04-24T15:09:50;8.60;99.90
51500;DHT22;39101;53.478;6.158;2023-04-24T15:12:15;8.80;99.90
51500;DHT22;39101;53.478;6.158;2023-04-24T15:14:41;8.70;99.90
51500;DHT22;39101;53.478;6.158;2023-04-24T15:17:07;8.80;99.90
51500;DHT22;39101;53.478;6.158;2023-04-24T15:19:32;8.80;99.90
51500;DHT22;39101;53.478;6.158;2023-04-24T15:21:58;9.00;99.90
51500;DHT22;39101;53.478;6.158;2023-04-24T15:24:24;8.80;99.90
51500;DHT22;39101;53.478;6.158;2023-04-24T15:26:50;9.00;99.90
51500;DHT22;39101;53.478;6.158;2023-04-24T15:29:15;8.90;99.90
51500;DHT22;39101;53.478;6.158;2023-04-24T15:31:41;9.00;99.90
51500;DHT22;39101;53.478;6.158;2023-04-24T15:34:07;8.80;99.90
51500;DHT22;39101;53.478;6.158;2023-04-24T15:36:32;8.90;99.90
51500;DHT22;39101;53.478;6.158;2023-04-24T15:38:58;8.90;99.90
51500;DHT22;39101;53.478;6.158;2023-04-24T15:41:24;9.00;99.90
51500;DHT22;39101;53.478;6.158;2023-04-24T15:43:49;9.00;99.90
51500;DHT22;39101;53.478;6.158;2023-04-24T15:46:15;9.00;99.90
51500;DHT22;39101;53.478;6.158;2023-04-24T15:48:44;8.90;99.90
51500;DHT22;39101;53.478;6.158;2023-04-24T15:51:10;9.00;99.90
51500;DHT22;39101;53.478;6.158;2023-04-24T15:53:36;8.80;99.90